Decoded Metar for VVDN (DANANG in VIET NAM) (IATA:DAD) | Meteo·Mobile Aviation Weather
aviador You're here:

VVDN Decoded Metar

DANANG in VIET NAM
Report Time2018-09-19 22:30:00
UTC Time2018-09-19 23:04:46
Flight Rules mvfr MVFR
WindCalm
Visibility7000 m
Phenomena:N/A
Clouds:Scattered 013 Hf
Scattered 050 Hf
Expected CloudBase > 400 ft AGL from Temp-Dew spread
CeilingNone
Temp26°C (ISA +11)
Dew Point25°C (94% RH)
QNH1011 hPa
Density Alt1,781 ft
Elevation23 ft
Report Wrong Elevation
Raw Report
VVDN 192230Z 00000KT 7000 SCT013 SCT050 26/25 Q1011 NOSIG=

Extra information for VVDN:More info

Metar Taf Metar & Taf Last 4 Metars F.Rules Stats Wind Profile Meteogram Temp Stats Airport Information Weather charts Add Link Nearby VenuesMetar ALERT Operation Metar Decoded Social comments